Time;durP1;ratioP1;P1;durP2;ratioP2;P2;SDS_P1;SDS_P2;PMS_P1;PMS_P2;Temp;Humidity;BMP_temperature;BMP_pressure;BME280_temperature;BME280_humidity;BME280_pressure;Samples;Min_cycle;Max_cycle;Signal;HPM_P1;HPM_P2
2023/06/12 00:00:52;;;;;;;6.60;4.00;;;19.90;83.10;;;;;;5037190;28;20438;-72
2023/06/12 00:03:23;;;;;;;7.93;4.20;;;19.80;83.00;;;;;;5037257;28;20505;-73
2023/06/12 00:05:53;;;;;;;8.33;4.47;;;19.80;83.30;;;;;;5037305;28;20430;-73
2023/06/12 00:08:22;;;;;;;10.17;4.83;;;19.70;83.40;;;;;;5037100;28;20481;-72
2023/06/12 00:10:51;;;;;;;6.63;4.80;;;19.60;84.20;;;;;;5037037;28;20445;-72
2023/06/12 00:13:19;;;;;;;8.13;4.10;;;19.60;83.80;;;;;;5036904;28;20471;-73
2023/06/12 00:15:48;;;;;;;9.57;3.90;;;19.60;84.70;;;;;;5037114;28;21038;-73
2023/06/12 00:18:17;;;;;;;8.80;4.80;;;19.50;84.20;;;;;;5036118;28;21071;-73
2023/06/12 00:20:45;;;;;;;6.53;3.97;;;19.50;84.30;;;;;;5036508;28;20447;-73
2023/06/12 00:23:14;;;;;;;8.90;4.27;;;19.40;84.40;;;;;;5036752;28;20435;-73
2023/06/12 00:25:42;;;;;;;8.40;4.80;;;19.40;84.60;;;;;;5035737;28;20859;-73
2023/06/12 00:28:11;;;;;;;7.07;4.33;;;19.30;84.80;;;;;;5035865;28;20490;-73
2023/06/12 00:30:39;;;;;;;7.00;4.60;;;19.30;85.00;;;;;;5034714;28;20547;-73
2023/06/12 00:33:08;;;;;;;6.73;4.57;;;19.20;85.20;;;;;;5034552;28;20988;-73
2023/06/12 00:35:37;;;;;;;7.37;4.20;;;19.20;85.40;;;;;;5034585;28;20451;-73
2023/06/12 00:38:06;;;;;;;7.40;4.70;;;19.20;85.50;;;;;;5036315;28;20895;-73
2023/06/12 00:40:34;;;;;;;6.90;4.30;;;19.10;85.60;;;;;;5036135;28;20482;-72
2023/06/12 00:43:02;;;;;;;8.57;4.50;;;19.10;85.80;;;;;;5034953;28;21087;-73
2023/06/12 00:45:30;;;;;;;10.27;5.17;;;19.00;85.90;;;;;;5035211;28;20427;-73
2023/06/12 00:48:00;;;;;;;8.00;4.60;;;19.00;86.20;;;;;;5034609;28;20463;-73
2023/06/12 00:50:30;;;;;;;6.23;4.60;;;18.90;86.40;;;;;;5034700;28;20443;-73
2023/06/12 00:53:00;;;;;;;8.40;5.70;;;18.90;86.70;;;;;;5035910;28;21002;-73
2023/06/12 00:55:31;;;;;;;10.23;4.93;;;18.80;86.80;;;;;;5035794;28;20431;-73
2023/06/12 00:58:01;;;;;;;6.93;4.80;;;18.80;87.00;;;;;;5036149;28;20960;-73
2023/06/12 01:00:29;;;;;;;8.20;4.93;;;18.80;87.10;;;;;;5035241;28;20472;-73
2023/06/12 01:03:04;;;;;;;10.40;5.03;;;18.80;88.70;;;;;;5034464;28;20447;-73
2023/06/12 01:05:37;;;;;;;7.63;4.70;;;18.80;88.20;;;;;;5034391;28;20469;-73
2023/06/12 01:08:17;;;;;;;7.67;5.13;;;18.70;88.20;;;;;;5034755;28;21115;-73
2023/06/12 01:10:57;;;;;;;7.30;4.77;;;18.70;88.30;;;;;;5034843;28;20478;-72
2023/06/12 01:13:25;;;;;;;8.77;4.77;;;18.60;88.20;;;;;;5034585;28;20474;-72
2023/06/12 01:15:54;;;;;;;7.50;4.77;;;18.50;88.30;;;;;;5034506;28;20453;-72
2023/06/12 01:18:23;;;;;;;9.40;5.47;;;18.50;88.40;;;;;;5034354;28;21132;-73
2023/06/12 01:20:55;;;;;;;7.43;4.70;;;18.50;88.60;;;;;;5035880;28;20461;-73
2023/06/12 01:23:43;;;;;;;7.60;4.93;;;18.40;88.80;;;;;;5035586;28;20881;-72
2023/06/12 01:26:48;;;;;;;6.73;5.03;;;18.40;89.00;;;;;;5034490;28;20435;-72
2023/06/12 01:29:37;;;;;;;8.87;5.33;;;18.30;89.10;;;;;;5032325;28;20455;-72
2023/06/12 01:32:09;;;;;;;7.57;4.90;;;18.30;89.30;;;;;;5034270;28;20447;-72
2023/06/12 01:34:50;;;;;;;7.73;5.27;;;18.20;89.30;;;;;;5035542;28;20510;-72
2023/06/12 01:37:29;;;;;;;7.13;4.70;;;18.20;89.60;;;;;;5033822;28;20475;-72
2023/06/12 01:39:59;;;;;;;8.53;4.33;;;18.10;89.80;;;;;;5036641;28;20430;-73
2023/06/12 01:42:30;;;;;;;7.27;4.57;;;18.10;89.90;;;;;;5037485;28;20447;-73
2023/06/12 01:44:58;;;;;;;7.63;5.37;;;18.10;90.00;;;;;;5034786;28;20442;-72
2023/06/12 01:47:28;;;;;;;9.70;5.40;;;18.00;90.00;;;;;;5036447;28;20465;-72
2023/06/12 01:49:56;;;;;;;9.00;5.23;;;18.00;90.10;;;;;;5036318;28;20530;-72
2023/06/12 01:52:24;;;;;;;8.87;4.90;;;18.00;90.20;;;;;;5034011;28;20481;-73
2023/06/12 01:54:53;;;;;;;7.37;4.90;;;17.90;90.20;;;;;;5034511;28;20572;-73
2023/06/12 01:57:22;;;;;;;6.77;4.70;;;17.90;90.30;;;;;;5034543;28;20466;-73
2023/06/12 01:59:51;;;;;;;6.73;5.43;;;17.80;90.30;;;;;;5033196;28;20439;-72
2023/06/12 02:02:21;;;;;;;6.97;5.30;;;17.80;90.40;;;;;;5032997;28;20443;-72
2023/06/12 02:04:51;;;;;;;6.37;5.10;;;17.80;90.50;;;;;;5033186;28;20447;-72
2023/06/12 02:07:19;;;;;;;8.70;5.20;;;17.70;90.60;;;;;;5034918;28;20486;-72
2023/06/12 02:09:48;;;;;;;9.80;5.80;;;17.70;90.60;;;;;;5033236;28;20453;-73
2023/06/12 02:12:16;;;;;;;7.67;5.10;;;17.70;90.80;;;;;;5033164;28;20442;-73
2023/06/12 02:14:45;;;;;;;7.90;5.23;;;17.60;90.80;;;;;;5033251;28;20466;-73
2023/06/12 02:17:17;;;;;;;7.23;5.60;;;17.60;90.80;;;;;;5033108;28;20999;-73
2023/06/12 02:19:47;;;;;;;7.00;5.07;;;17.60;90.90;;;;;;5033788;28;20497;-73
2023/06/12 02:22:17;;;;;;;8.60;5.20;;;17.60;91.00;;;;;;5033633;28;20876;-72
2023/06/12 02:24:46;;;;;;;10.47;5.63;;;17.50;91.10;;;;;;5033206;28;20478;-72
2023/06/12 02:27:14;;;;;;;7.33;5.23;;;17.50;91.10;;;;;;5032892;28;20463;-72
2023/06/12 02:29:42;;;;;;;8.13;5.50;;;17.50;91.20;;;;;;5032810;28;20512;-73
2023/06/12 02:32:12;;;;;;;7.60;5.00;;;17.40;91.20;;;;;;5033437;28;20513;-73
2023/06/12 02:34:41;;;;;;;8.23;5.80;;;17.40;91.30;;;;;;5032943;28;20569;-73
2023/06/12 02:37:10;;;;;;;7.90;5.30;;;17.40;91.30;;;;;;5032836;28;20557;-73
2023/06/12 02:39:44;;;;;;;7.20;5.53;;;17.40;91.40;;;;;;5032989;28;20535;-72
2023/06/12 02:42:12;;;;;;;8.60;5.20;;;17.30;91.40;;;;;;5033208;28;20530;-72
2023/06/12 02:44:41;;;;;;;8.03;5.50;;;17.30;91.50;;;;;;5034401;28;20842;-73
2023/06/12 02:47:09;;;;;;;12.80;6.13;;;17.20;91.50;;;;;;5032978;28;20477;-73
2023/06/12 02:49:44;;;;;;;8.13;6.07;;;17.20;91.80;;;;;;5033088;28;20439;-72
2023/06/12 02:52:20;;;;;;;11.63;6.60;;;17.20;91.60;;;;;;5032933;28;20446;-72
2023/06/12 02:54:50;;;;;;;9.50;6.07;;;17.20;91.70;;;;;;5032981;28;20470;-72
2023/06/12 02:57:18;;;;;;;6.73;5.57;;;17.10;91.80;;;;;;5032822;28;20472;-73
2023/06/12 02:59:46;;;;;;;7.73;5.80;;;17.10;91.80;;;;;;5033638;28;20517;-73
2023/06/12 03:02:34;;;;;;;8.67;6.60;;;17.10;91.90;;;;;;5033745;28;20505;-73
2023/06/12 03:05:04;;;;;;;7.20;5.90;;;17.00;91.90;;;;;;5032937;28;20998;-72
2023/06/12 03:07:36;;;;;;;9.07;6.03;;;17.00;92.00;;;;;;5032973;28;20509;-73
2023/06/12 03:10:07;;;;;;;8.63;5.90;;;17.00;92.00;;;;;;5037958;28;20442;-72
2023/06/12 03:12:35;;;;;;;7.87;6.13;;;16.90;92.10;;;;;;5036717;28;20450;-72
2023/06/12 03:15:04;;;;;;;9.33;6.10;;;16.90;92.10;;;;;;5036504;28;21022;-72
2023/06/12 03:17:33;;;;;;;11.10;5.90;;;16.90;92.20;;;;;;5036789;28;20875;-72
2023/06/12 03:20:05;;;;;;;8.20;6.30;;;16.90;92.30;;;;;;5036776;28;20538;-72
2023/06/12 03:22:33;;;;;;;15.10;9.07;;;16.90;92.40;;;;;;5037581;28;20924;-73
2023/06/12 03:25:02;;;;;;;13.27;10.43;;;16.80;92.40;;;;;;5037771;28;20461;-73
2023/06/12 03:27:31;;;;;;;11.80;10.00;;;16.80;92.40;;;;;;5036537;28;20463;-72
2023/06/12 03:30:00;;;;;;;13.30;9.80;;;16.80;92.50;;;;;;5037357;28;20457;-72
2023/06/12 03:32:31;;;;;;;13.63;8.30;;;16.80;92.60;;;;;;5036879;28;21033;-72
2023/06/12 03:35:02;;;;;;;9.77;7.53;;;16.70;92.60;;;;;;5035988;28;20466;-72
2023/06/12 03:37:39;;;;;;;11.00;7.53;;;16.70;93.00;;;;;;5035654;28;20528;-72
2023/06/12 03:40:10;;;;;;;10.00;7.07;;;16.70;93.10;;;;;;5035659;28;20975;-72
2023/06/12 03:42:43;;;;;;;9.80;6.93;;;16.70;92.90;;;;;;5035244;28;20512;-72
2023/06/12 03:45:12;;;;;;;11.07;6.67;;;16.70;93.00;;;;;;5035951;28;20978;-72
2023/06/12 03:47:41;;;;;;;8.70;6.87;;;16.60;93.00;;;;;;5035970;28;21015;-72
2023/06/12 03:50:11;;;;;;;11.50;7.43;;;16.60;93.00;;;;;;5036236;28;20817;-72
2023/06/12 03:52:40;;;;;;;12.10;6.80;;;16.60;93.10;;;;;;5037009;28;20447;-72
2023/06/12 03:55:09;;;;;;;13.33;6.63;;;16.60;93.50;;;;;;5036002;28;20494;-72
2023/06/12 03:57:38;;;;;;;9.30;7.27;;;16.60;93.30;;;;;;5035901;28;20510;-72
2023/06/12 04:00:11;;;;;;;8.73;6.93;;;16.60;93.70;;;;;;5036818;28;20443;-72
2023/06/12 04:02:46;;;;;;;10.33;7.53;;;16.60;93.50;;;;;;5037594;28;20420;-72
2023/06/12 04:05:20;;;;;;;10.00;7.27;;;16.60;93.60;;;;;;5036904;28;20419;-72
2023/06/12 04:07:50;;;;;;;11.80;7.53;;;16.60;93.70;;;;;;5036196;28;20517;-73
2023/06/12 04:10:18;;;;;;;10.27;7.53;;;16.60;93.80;;;;;;5035179;28;20534;-73
2023/06/12 04:12:47;;;;;;;10.17;6.97;;;16.60;93.90;;;;;;5034970;28;20817;-73
2023/06/12 04:15:17;;;;;;;9.60;7.60;;;16.60;94.00;;;;;;5035047;28;20470;-73
2023/06/12 04:17:45;;;;;;;15.10;8.13;;;16.60;94.10;;;;;;5036423;28;20464;-73
2023/06/12 04:20:14;;;;;;;9.40;7.50;;;16.60;94.10;;;;;;5034365;28;20447;-73
2023/06/12 04:22:42;;;;;;;10.03;6.97;;;16.60;94.20;;;;;;5036723;28;20438;-73
2023/06/12 04:25:10;;;;;;;10.70;7.27;;;16.60;94.30;;;;;;5035395;28;20512;-73
2023/06/12 04:27:40;;;;;;;8.53;6.40;;;16.60;94.30;;;;;;5036370;28;20463;-73
2023/06/12 04:30:09;;;;;;;9.80;6.87;;;16.60;94.40;;;;;;5035248;28;20458;-73
2023/06/12 04:32:39;;;;;;;9.07;7.50;;;16.60;94.40;;;;;;5035378;28;20505;-73
2023/06/12 04:35:08;;;;;;;10.30;7.87;;;16.60;94.50;;;;;;5036311;28;20462;-72
2023/06/12 04:37:38;;;;;;;10.90;7.20;;;16.70;94.60;;;;;;5035065;28;20471;-72
2023/06/12 04:40:08;;;;;;;12.13;8.10;;;16.70;94.70;;;;;;5035522;28;20493;-72
2023/06/12 04:42:36;;;;;;;9.30;7.23;;;16.70;94.70;;;;;;5037389;28;20461;-72
2023/06/12 04:45:05;;;;;;;11.30;7.83;;;16.70;94.80;;;;;;5036580;28;20435;-72
2023/06/12 04:47:36;;;;;;;12.00;8.00;;;16.70;94.80;;;;;;5035087;28;20466;-73
2023/06/12 04:50:08;;;;;;;13.20;7.67;;;16.70;94.90;;;;;;5036307;28;20446;-72
2023/06/12 04:52:37;;;;;;;10.10;7.53;;;16.70;95.00;;;;;;5035025;28;20445;-72
2023/06/12 04:55:08;;;;;;;11.57;7.17;;;16.70;95.00;;;;;;5034992;28;20475;-72
2023/06/12 04:57:39;;;;;;;10.87;8.17;;;16.70;95.10;;;;;;5034596;28;20474;-72
2023/06/12 05:00:13;;;;;;;13.30;7.47;;;16.80;95.20;;;;;;5035378;28;20777;-72
2023/06/12 05:02:42;;;;;;;10.60;8.10;;;16.80;95.20;;;;;;5035090;28;20445;-72
2023/06/12 05:05:12;;;;;;;9.83;7.30;;;16.80;95.30;;;;;;5036292;28;20933;-72
2023/06/12 05:07:41;;;;;;;12.10;8.60;;;16.80;95.40;;;;;;5035478;28;20474;-72
2023/06/12 05:10:10;;;;;;;9.60;7.73;;;16.80;95.40;;;;;;5034422;28;20459;-73
2023/06/12 05:12:39;;;;;;;9.43;8.13;;;16.90;95.50;;;;;;5033855;28;20417;-73
2023/06/12 05:15:09;;;;;;;11.70;9.13;;;16.90;95.50;;;;;;5033633;28;20501;-72
2023/06/12 05:17:37;;;;;;;12.60;8.77;;;16.90;95.50;;;;;;5034203;28;20850;-73
2023/06/12 05:20:08;;;;;;;11.80;8.27;;;17.00;95.60;;;;;;5033772;28;20470;-73
2023/06/12 05:22:39;;;;;;;11.77;8.20;;;17.00;95.70;;;;;;5033883;28;21026;-73
2023/06/12 05:25:09;;;;;;;10.87;8.13;;;17.00;95.70;;;;;;5035275;28;20435;-73
2023/06/12 05:27:37;;;;;;;11.30;8.57;;;17.10;95.80;;;;;;5033891;28;20487;-73
2023/06/12 05:30:09;;;;;;;10.13;8.90;;;17.10;95.90;;;;;;5033457;28;20454;-73
2023/06/12 05:32:39;;;;;;;10.30;8.63;;;17.20;95.90;;;;;;5033542;28;20418;-73
2023/06/12 05:35:09;;;;;;;10.90;8.33;;;17.30;96.00;;;;;;5034227;28;20813;-73
2023/06/12 05:37:38;;;;;;;9.90;8.80;;;17.40;96.00;;;;;;5033441;28;20463;-73
2023/06/12 05:40:09;;;;;;;12.43;9.17;;;17.50;96.10;;;;;;5035133;28;20435;-73
2023/06/12 05:42:38;;;;;;;12.67;9.97;;;17.60;96.10;;;;;;5033766;28;20466;-73
2023/06/12 05:45:09;;;;;;;10.43;8.50;;;17.80;96.20;;;;;;5032905;28;20451;-73
2023/06/12 05:47:37;;;;;;;12.27;9.57;;;18.00;96.20;;;;;;5034293;28;20812;-73
2023/06/12 05:50:08;;;;;;;9.80;8.70;;;18.20;96.20;;;;;;5033226;28;20458;-73
2023/06/12 05:52:36;;;;;;;11.20;9.53;;;18.40;96.30;;;;;;5034290;28;20435;-73
2023/06/12 05:55:09;;;;;;;10.70;8.73;;;18.60;96.20;;;;;;5033172;28;20459;-73
2023/06/12 05:57:38;;;;;;;11.77;8.20;;;18.80;96.20;;;;;;5034355;28;20963;-73
2023/06/12 06:00:10;;;;;;;11.80;9.03;;;19.10;96.20;;;;;;5034434;28;20485;-73
2023/06/12 06:02:43;;;;;;;9.23;8.33;;;19.30;96.10;;;;;;5035588;28;20458;-73
2023/06/12 06:05:24;;;;;;;12.27;9.33;;;19.50;96.20;;;;;;5033581;28;20450;-74
2023/06/12 06:07:53;;;;;;;10.07;8.80;;;19.80;96.20;;;;;;5033227;28;20478;-73
2023/06/12 06:10:22;;;;;;;10.53;8.03;;;20.00;96.10;;;;;;5033161;28;20526;-73
2023/06/12 06:12:52;;;;;;;10.30;8.70;;;20.20;96.10;;;;;;5034162;28;20435;-73
2023/06/12 06:15:21;;;;;;;11.90;9.70;;;20.50;96.00;;;;;;5033345;28;20466;-73
2023/06/12 06:17:49;;;;;;;11.90;10.70;;;20.70;96.00;;;;;;5033116;28;20473;-74
2023/06/12 06:20:17;;;;;;;11.50;9.83;;;20.90;95.90;;;;;;5033104;28;20451;-73
2023/06/12 06:22:45;;;;;;;15.20;13.60;;;21.10;95.70;;;;;;5034231;28;20450;-73
2023/06/12 06:25:15;;;;;;;12.60;11.00;;;21.30;95.50;;;;;;5034725;28;20786;-73
2023/06/12 06:27:46;;;;;;;11.20;10.20;;;21.50;95.30;;;;;;5033324;28;20553;-73
2023/06/12 06:30:14;;;;;;;13.80;10.53;;;21.70;95.20;;;;;;5034488;28;20454;-73
2023/06/12 06:32:42;;;;;;;12.60;11.30;;;21.90;95.00;;;;;;5034565;28;20447;-73
2023/06/12 06:35:11;;;;;;;12.77;11.40;;;22.10;94.90;;;;;;5038883;28;20477;-73
2023/06/12 06:37:40;;;;;;;11.33;10.03;;;22.20;94.60;;;;;;5034795;28;20467;-74
2023/06/12 06:40:09;;;;;;;13.77;12.27;;;22.30;94.50;;;;;;5034787;28;20489;-74
2023/06/12 06:42:38;;;;;;;14.13;11.30;;;22.50;94.40;;;;;;5034942;28;20513;-74
2023/06/12 06:45:13;;;;;;;11.77;10.67;;;22.60;94.30;;;;;;5037189;28;20811;-74
2023/06/12 06:47:43;;;;;;;11.67;10.43;;;22.80;94.20;;;;;;5037095;28;20534;-73
2023/06/12 06:50:12;;;;;;;12.67;11.47;;;22.90;94.10;;;;;;5037700;28;21006;-74
2023/06/12 06:52:41;;;;;;;12.50;10.57;;;23.00;93.90;;;;;;5037349;28;20447;-74
2023/06/12 06:55:11;;;;;;;11.43;10.33;;;23.20;93.70;;;;;;5037583;28;20541;-74
2023/06/12 06:57:42;;;;;;;11.27;10.17;;;23.30;93.70;;;;;;5037069;28;20521;-73
2023/06/12 07:00:13;;;;;;;12.67;10.93;;;23.50;93.60;;;;;;5037229;28;20834;-73
2023/06/12 07:02:45;;;;;;;12.10;10.90;;;23.60;93.40;;;;;;5039523;28;20919;-74
2023/06/12 07:05:16;;;;;;;12.10;10.70;;;23.70;93.40;;;;;;5040134;28;20485;-75
2023/06/12 07:07:47;;;;;;;12.50;11.30;;;23.80;93.10;;;;;;5039506;28;21001;-74
2023/06/12 07:10:30;;;;;;;14.63;12.63;;;23.90;93.00;;;;;;5039382;28;20427;-74
2023/06/12 07:12:59;;;;;;;12.10;11.00;;;24.00;92.70;;;;;;5039103;28;20447;-74
2023/06/12 07:15:35;;;;;;;16.27;11.50;;;24.10;92.60;;;;;;5040817;28;20526;-74
2023/06/12 07:18:03;;;;;;;12.07;10.97;;;24.20;92.40;;;;;;5039750;28;20465;-73
2023/06/12 07:20:32;;;;;;;12.57;11.20;;;24.20;92.20;;;;;;5038264;28;20819;-74
2023/06/12 07:23:00;;;;;;;11.97;10.77;;;24.30;92.10;;;;;;5039691;28;20886;-76
2023/06/12 07:25:28;;;;;;;11.23;10.07;;;24.40;91.90;;;;;;5040600;28;20806;-74
2023/06/12 07:27:56;;;;;;;11.80;10.60;;;24.40;91.90;;;;;;5038538;28;20466;-74
2023/06/12 07:30:25;;;;;;;13.07;11.17;;;24.50;91.90;;;;;;5038802;28;20472;-74
2023/06/12 07:32:54;;;;;;;11.23;10.27;;;24.50;91.80;;;;;;5038283;28;20438;-74
2023/06/12 07:35:23;;;;;;;10.90;9.90;;;24.60;91.80;;;;;;5038530;28;20467;-75
2023/06/12 07:37:51;;;;;;;11.73;10.53;;;24.70;91.70;;;;;;5038246;28;20561;-69
2023/06/12 07:40:20;;;;;;;12.30;11.03;;;24.70;91.60;;;;;;5038710;28;20804;-73
2023/06/12 07:42:49;;;;;;;12.60;10.50;;;24.80;91.70;;;;;;5036813;28;20443;-74
2023/06/12 07:45:19;;;;;;;12.27;11.00;;;24.90;91.80;;;;;;5036781;28;20464;-74
2023/06/12 07:47:49;;;;;;;12.30;11.00;;;25.00;91.80;;;;;;5037341;28;20589;-76
2023/06/12 07:50:22;;;;;;;13.53;9.83;;;25.10;91.70;;;;;;5037832;28;20497;-75
2023/06/12 07:52:51;;;;;;;11.60;10.50;;;25.20;91.80;;;;;;5037078;28;20438;-75
2023/06/12 07:55:21;;;;;;;11.47;10.20;;;25.30;91.40;;;;;;5035922;28;20466;-73
2023/06/12 07:57:50;;;;;;;15.83;10.57;;;25.30;91.10;;;;;;5035764;28;20482;-73
2023/06/12 08:00:20;;;;;;;12.20;11.00;;;25.30;91.00;;;;;;5037227;28;20431;-73
2023/06/12 08:02:58;;;;;;;12.70;11.47;;;25.40;91.00;;;;;;5037567;28;20772;-75
2023/06/12 08:05:37;;;;;;;12.10;10.90;;;25.50;91.00;;;;;;5035781;28;20955;-74
2023/06/12 08:08:12;;;;;;;13.63;12.20;;;25.50;90.90;;;;;;5035707;28;20549;-74
2023/06/12 08:10:41;;;;;;;13.07;11.67;;;25.50;90.90;;;;;;5036104;28;20538;-73
2023/06/12 08:13:11;;;;;;;12.30;11.20;;;25.60;90.80;;;;;;5036528;28;20451;-73
2023/06/12 08:15:40;;;;;;;12.73;11.43;;;25.60;90.70;;;;;;5035548;28;20960;-73
2023/06/12 08:18:11;;;;;;;12.27;11.17;;;25.70;90.70;;;;;;5036028;28;20562;-73
2023/06/12 08:20:41;;;;;;;12.53;11.40;;;25.70;90.60;;;;;;5035841;28;20897;-73
2023/06/12 08:23:09;;;;;;;13.27;12.10;;;25.70;90.40;;;;;;5035894;28;20525;-74
2023/06/12 08:25:38;;;;;;;12.93;11.50;;;25.80;90.50;;;;;;5035512;28;20626;-74
2023/06/12 08:28:06;;;;;;;12.43;11.33;;;25.80;90.60;;;;;;5035656;28;20502;-74
2023/06/12 08:30:34;;;;;;;12.93;11.60;;;25.90;90.60;;;;;;5036333;28;20465;-73
2023/06/12 08:33:03;;;;;;;12.77;11.57;;;26.00;90.60;;;;;;5036122;28;20857;-73
2023/06/12 08:35:34;;;;;;;12.90;11.60;;;26.10;90.50;;;;;;5035344;28;20505;-74
2023/06/12 08:38:04;;;;;;;13.30;12.00;;;26.10;90.20;;;;;;5034889;28;20521;-74
2023/06/12 08:40:32;;;;;;;12.60;11.50;;;26.20;90.10;;;;;;5035142;28;20450;-74
2023/06/12 08:43:01;;;;;;;13.00;10.90;;;26.20;90.20;;;;;;5035561;28;20451;-73
2023/06/12 08:45:33;;;;;;;11.70;10.60;;;26.30;90.20;;;;;;5035029;28;20482;-73
2023/06/12 08:48:05;;;;;;;12.63;11.53;;;26.30;90.10;;;;;;5036919;28;20455;-73
2023/06/12 08:50:34;;;;;;;12.70;11.50;;;26.40;90.10;;;;;;5036903;28;20447;-74
2023/06/12 08:53:04;;;;;;;11.93;10.93;;;26.50;89.70;;;;;;5036672;28;20940;-74
2023/06/12 08:55:39;;;;;;;15.60;11.40;;;26.60;89.80;;;;;;5035399;28;20431;-73
2023/06/12 08:58:08;;;;;;;11.90;10.90;;;26.70;89.50;;;;;;5036494;28;20481;-73
2023/06/12 09:00:36;;;;;;;12.50;10.57;;;26.70;89.00;;;;;;5036937;28;20530;-73
2023/06/12 09:03:06;;;;;;;11.57;10.53;;;26.80;89.30;;;;;;5036655;28;20457;-73
2023/06/12 09:05:37;;;;;;;11.30;10.30;;;26.90;89.10;;;;;;5035173;28;20537;-73
2023/06/12 09:08:07;;;;;;;11.17;10.10;;;26.90;88.80;;;;;;5037089;28;20451;-74
2023/06/12 09:10:38;;;;;;;10.40;9.50;;;27.00;88.40;;;;;;5036475;28;20435;-74
2023/06/12 09:13:08;;;;;;;10.50;9.40;;;27.10;88.00;;;;;;5035553;28;20439;-74
2023/06/12 09:15:37;;;;;;;9.47;8.67;;;27.20;87.50;;;;;;5036315;28;20458;-73
2023/06/12 09:18:10;;;;;;;9.30;8.50;;;27.30;87.20;;;;;;5036162;28;20525;-74
2023/06/12 09:20:40;;;;;;;9.70;8.80;;;27.40;87.00;;;;;;5036574;28;20416;-73
2023/06/12 09:23:12;;;;;;;10.10;9.20;;;27.60;86.20;;;;;;5036688;28;20434;-74
2023/06/12 09:25:42;;;;;;;10.50;9.40;;;27.60;85.60;;;;;;5037175;28;20419;-74
2023/06/12 09:28:36;;;;;;;10.67;9.67;;;27.60;85.30;;;;;;5036044;28;20455;-74
2023/06/12 09:31:05;;;;;;;11.37;10.20;;;27.60;85.20;;;;;;5036165;28;20517;-74
2023/06/12 09:33:35;;;;;;;11.00;9.83;;;27.70;85.10;;;;;;5035743;28;20439;-73
2023/06/12 09:36:04;;;;;;;11.53;10.20;;;27.70;85.10;;;;;;5035878;28;20435;-74
2023/06/12 09:38:35;;;;;;;16.23;11.20;;;27.80;84.50;;;;;;5034621;28;20868;-74
2023/06/12 09:41:05;;;;;;;12.33;11.23;;;27.80;84.50;;;;;;5036019;28;20419;-74
2023/06/12 09:43:34;;;;;;;12.40;11.10;;;27.80;84.50;;;;;;5035711;28;20542;-74
2023/06/12 09:46:04;;;;;;;11.17;10.20;;;27.90;84.30;;;;;;5036974;28;20431;-74
2023/06/12 09:48:33;;;;;;;11.50;10.43;;;27.90;84.00;;;;;;5039833;28;20455;-74
2023/06/12 09:51:05;;;;;;;10.60;9.60;;;28.00;83.80;;;;;;5038317;28;20465;-73
2023/06/12 09:53:39;;;;;;;11.97;10.80;;;28.10;83.60;;;;;;5035373;28;20435;-74
2023/06/12 09:56:09;;;;;;;9.43;8.60;;;28.10;82.60;;;;;;5035217;28;20431;-74
2023/06/12 09:58:39;;;;;;;10.77;9.77;;;28.20;82.50;;;;;;5037727;28;20573;-73
2023/06/12 10:01:08;;;;;;;15.20;9.93;;;28.20;82.30;;;;;;5037312;28;20450;-73
2023/06/12 10:03:39;;;;;;;11.63;10.50;;;28.20;82.00;;;;;;5037068;28;20434;-74
2023/06/12 10:06:10;;;;;;;13.27;10.70;;;28.10;81.70;;;;;;5036321;28;20820;-74
2023/06/12 10:08:40;;;;;;;12.07;11.03;;;28.10;81.70;;;;;;5036448;28;20824;-74
2023/06/12 10:11:10;;;;;;;11.57;10.47;;;28.10;81.70;;;;;;5036092;28;20791;-74
2023/06/12 10:13:40;;;;;;;11.93;10.70;;;28.10;81.90;;;;;;5034832;28;20462;-74
2023/06/12 10:16:08;;;;;;;10.57;9.43;;;28.10;81.90;;;;;;5034555;28;20475;-73
2023/06/12 10:18:37;;;;;;;10.07;8.90;;;28.10;81.90;;;;;;5034403;28;20979;-74
2023/06/12 10:21:06;;;;;;;9.73;8.30;;;28.20;81.70;;;;;;5034595;28;20501;-73
2023/06/12 10:23:36;;;;;;;8.87;8.07;;;28.20;80.30;;;;;;5034790;28;20485;-74
2023/06/12 10:26:06;;;;;;;9.90;8.90;;;28.20;79.70;;;;;;5032846;28;20807;-74
2023/06/12 10:28:35;;;;;;;8.73;7.77;;;28.20;79.20;;;;;;5032745;28;20469;-73
2023/06/12 10:31:14;;;;;;;8.53;7.60;;;28.30;78.10;;;;;;5032796;28;20530;-73
2023/06/12 10:34:05;;;;;;;10.70;8.20;;;28.40;77.10;;;;;;5034196;28;20892;-74
2023/06/12 10:36:42;;;;;;;8.80;7.87;;;28.60;75.60;;;;;;5034690;28;20419;-74
2023/06/12 10:39:19;;;;;;;9.33;8.10;;;28.60;75.60;;;;;;5034616;28;20869;-74
2023/06/12 10:41:57;;;;;;;9.90;8.90;;;28.70;75.30;;;;;;5033801;28;20473;-74
2023/06/12 10:44:36;;;;;;;9.70;8.80;;;28.80;75.40;;;;;;5033891;28;20451;-74
2023/06/12 10:47:05;;;;;;;13.00;9.40;;;28.80;75.20;;;;;;5032358;28;20465;-75
2023/06/12 10:49:58;;;;;;;10.03;7.90;;;28.90;75.00;;;;;;5033574;28;21079;-73
2023/06/12 10:52:27;;;;;;;9.60;8.73;;;28.90;74.30;;;;;;5033766;28;20453;-73
2023/06/12 10:55:17;;;;;;;9.07;8.17;;;29.00;74.10;;;;;;5033996;28;20629;-73
2023/06/12 10:57:53;;;;;;;11.40;8.30;;;29.00;74.00;;;;;;5032999;28;20471;-74
2023/06/12 11:00:23;;;;;;;9.37;8.33;;;28.90;74.00;;;;;;5034088;28;20473;-74
2023/06/12 11:02:59;;;;;;;10.40;9.40;;;29.00;74.00;;;;;;5034182;28;20998;-74
2023/06/12 11:05:29;;;;;;;9.83;8.80;;;29.00;73.60;;;;;;5033902;28;20415;-74
2023/06/12 11:07:59;;;;;;;10.63;9.63;;;28.90;73.40;;;;;;5033784;28;20458;-74
2023/06/12 11:10:28;;;;;;;9.20;8.40;;;28.90;73.30;;;;;;5033535;28;20435;-74
2023/06/12 11:12:58;;;;;;;10.03;9.00;;;28.90;73.30;;;;;;5033387;28;20435;-74
2023/06/12 11:15:26;;;;;;;11.40;10.20;;;29.00;73.50;;;;;;5033432;28;20438;-73
2023/06/12 11:17:55;;;;;;;10.30;9.30;;;29.10;72.60;;;;;;5033614;28;20840;-74
2023/06/12 11:20:24;;;;;;;10.93;9.90;;;28.90;72.00;;;;;;5032296;28;20439;-74
2023/06/12 11:23:00;;;;;;;10.27;9.17;;;28.80;71.50;;;;;;5033516;28;20516;-74
2023/06/12 11:25:32;;;;;;;9.90;8.77;;;28.70;70.80;;;;;;5032646;28;20458;-74
2023/06/12 11:28:04;;;;;;;10.13;9.10;;;28.60;71.00;;;;;;5033337;28;20486;-74
2023/06/12 11:30:32;;;;;;;9.23;8.33;;;28.50;71.20;;;;;;5036290;28;20446;-74
2023/06/12 11:33:10;;;;;;;9.73;8.73;;;28.50;71.40;;;;;;5037180;28;20507;-74
2023/06/12 11:35:42;;;;;;;10.17;9.13;;;28.50;71.00;;;;;;5036885;28;20761;-74
2023/06/12 11:38:12;;;;;;;9.40;8.50;;;28.50;71.40;;;;;;5036615;28;20474;-74
2023/06/12 11:40:44;;;;;;;10.90;8.03;;;28.60;70.90;;;;;;5037017;28;20430;-74
2023/06/12 11:43:16;;;;;;;11.10;8.57;;;28.70;71.00;;;;;;5035589;28;20534;-74
2023/06/12 11:45:44;;;;;;;9.70;8.70;;;28.80;70.00;;;;;;5036861;28;20458;-74
2023/06/12 11:48:14;;;;;;;9.30;8.40;;;28.80;70.00;;;;;;5036418;28;20546;-74
2023/06/12 11:50:47;;;;;;;9.60;8.60;;;28.90;69.90;;;;;;5036619;28;20419;-74
2023/06/12 11:53:16;;;;;;;9.23;8.33;;;28.90;69.80;;;;;;5035656;28;20498;-74
2023/06/12 11:55:47;;;;;;;11.17;8.60;;;29.10;70.00;;;;;;5036489;28;20508;-74
2023/06/12 11:58:20;;;;;;;9.27;8.37;;;29.10;69.40;;;;;;5035042;28;20562;-74
2023/06/12 12:00:51;;;;;;;12.30;10.00;;;29.20;69.50;;;;;;5036394;28;20785;-74
2023/06/12 12:03:21;;;;;;;9.60;8.50;;;29.30;69.00;;;;;;5036586;28;20454;-74
2023/06/12 12:05:51;;;;;;;8.80;7.90;;;29.30;68.50;;;;;;5034955;28;20505;-74
2023/06/12 12:08:27;;;;;;;8.60;7.60;;;29.40;68.00;;;;;;5036414;28;20450;-73
2023/06/12 12:10:55;;;;;;;8.03;7.23;;;29.40;67.40;;;;;;5036763;28;20442;-74
2023/06/12 12:13:25;;;;;;;8.67;7.43;;;29.40;67.60;;;;;;5034953;28;20462;-73
2023/06/12 12:15:53;;;;;;;9.60;8.70;;;29.30;66.30;;;;;;5034973;28;20549;-74
2023/06/12 12:18:21;;;;;;;8.40;7.50;;;29.30;66.00;;;;;;5035831;28;20828;-73
2023/06/12 12:20:50;;;;;;;8.20;7.40;;;29.40;65.60;;;;;;5036137;28;20453;-74
2023/06/12 12:23:18;;;;;;;8.17;6.83;;;29.40;65.70;;;;;;5036107;28;20489;-74
2023/06/12 12:25:48;;;;;;;9.03;7.63;;;29.40;65.30;;;;;;5035948;28;21006;-73
2023/06/12 12:28:16;;;;;;;11.77;7.13;;;29.40;65.20;;;;;;5035784;28;20490;-74
2023/06/12 12:30:46;;;;;;;12.70;7.40;;;29.30;64.90;;;;;;5035780;28;20478;-73
2023/06/12 12:33:14;;;;;;;10.07;7.77;;;29.30;64.40;;;;;;5036009;28;20439;-74
2023/06/12 12:35:42;;;;;;;8.53;7.63;;;29.30;64.40;;;;;;5035851;28;20435;-73
2023/06/12 12:38:10;;;;;;;8.20;7.07;;;29.30;64.00;;;;;;5036004;28;20558;-74
2023/06/12 12:40:38;;;;;;;8.10;7.30;;;29.30;63.60;;;;;;5034585;28;20447;-74
2023/06/12 12:43:06;;;;;;;8.10;6.57;;;29.30;63.30;;;;;;5034196;28;20447;-74
2023/06/12 12:45:35;;;;;;;8.47;7.67;;;29.30;63.40;;;;;;5035401;28;20442;-74
2023/06/12 12:48:05;;;;;;;9.40;6.97;;;29.30;63.40;;;;;;5035268;28;20485;-74
2023/06/12 12:50:33;;;;;;;8.00;7.27;;;29.40;63.20;;;;;;5035580;28;20422;-74
2023/06/12 12:53:17;;;;;;;8.43;7.20;;;29.40;63.50;;;;;;5035432;28;20419;-74
2023/06/12 12:55:45;;;;;;;8.80;7.33;;;29.50;63.20;;;;;;5034072;28;20447;-74